Data for 07/12/2015

Time Sea-Level Adjusted Pressure Absolute Pressure Temperature Relative Humidity Dew Point   
(mb) (inHg) (mb) (inHg) (C) (F) (%) (C) (F)
00:05 1018 30.06 847 25.01 14.7 58.4 64 8 46.4
00:10 1018 30.06 847 25.01 14.5 58.2 62 7.5 45.5
00:15 1018 30.06 847 25.01 14.7 58.4 64 8 46.3
00:20 1018 30.06 847 25.01 15.2 59.3 57 6.8 44.3
00:25 1018 30.06 847 25.01 15.9 60.6 56 7.2 44.9
00:30 1018 30.06 847 25.01 16 60.8 56 7.3 45.2
00:35 1018 30.06 847 25.01 15.9 60.6 56 7.2 45
00:40 1018 30.06 847 25.01 15.8 60.5 57 7.4 45.3
00:45 1018 30.06 847 25.01 15.7 60.3 58 7.5 45.4
00:50 1018 30.06 847 25.01 15.6 60.1 58 7.5 45.6
00:55 1018 30.06 847 25.01 15.4 59.6 61 7.9 46.2
01:00 1018 30.06 847 25.01 15.1 59.2 60 7.5 45.6
01:05 1018 30.06 847 25.01 15.2 59.3 59 7.3 45.1
01:10 1018 30.06 847 25.01 15.4 59.8 57 7 44.6
01:15 1018 30.06 847 25.01 15.7 60.3 57 7.2 45
01:20 1018 30.06 847 25.01 15.7 60.2 59 7.6 45.7
01:25 1018 30.06 847 25.01 15.4 59.7 58 7.3 45.1
01:30 1018 30.06 847 25.01 15.3 59.6 59 7.3 45.2
01:35 1018 30.06 847 25.01 15.3 59.6 58 7.2 45
01:40 1018 30.06 847 25.01 15.4 59.7 58 7.3 45.2
01:45 1018 30.06 847 25.01 15.4 59.7 59 7.5 45.6
01:50 1018 30.06 847 25.01 15.4 59.7 58 7.4 45.2
01:55 1018 30.06 847 25.01 15.3 59.5 60 7.6 45.7
02:00 1018 30.06 847 25.01 15.2 59.4 59 7.4 45.3
02:05 1018 30.06 847 25.01 15.1 59.2 60 7.5 45.5
02:10 1018 30.06 847 25.01 14.9 58.9 61 7.6 45.7
02:15 1018 30.06 847 25.01 15.1 59.3 60 7.4 45.4
02:20 1018 30.06 847 25.01 15.1 59.2 60 7.5 45.4
02:25 1018 30.06 847 25.01 14.8 58.7 61 7.5 45.6
02:30 1018 30.06 847 25.01 14.6 58.3 60 7.1 44.8
02:35 1018 30.06 847 25.01 14.8 58.6 62 7.6 45.7
02:40 1018 30.06 847 25.01 14.8 58.6 63 7.9 46.2
02:45 1018 30.06 847 25.01 14.7 58.5 61 7.3 45.2
02:50 1018 30.06 847 25.01 14.9 58.8 60 7.2 45
02:55 1018 30.06 847 25.01 15 59 63 8 46.4
03:00 1018 30.06 847 25.01 14.7 58.4 62 7.6 45.6
03:05 1018 30.06 847 25.01 14.4 58 64 7.8 46
03:10 1018 30.06 847 25.01 14.1 57.3 63 7.2 44.9
03:15 1018 30.06 847 25.01 14.2 57.5 62 7.1 44.7
03:20 1018 30.06 847 25.01 14.6 58.2 60 6.8 44.3
03:25 1018 30.06 847 25.01 15.1 59.1 56 6.5 43.6
03:30 1018 30.06 847 25.01 15.7 60.2 54 6.6 43.8
03:35 1018 30.06 847 25.01 15.9 60.6 55 6.9 44.4
03:40 1018 30.06 847 25.01 15.8 60.4 55 6.8 44.2
03:45 1018 30.06 847 25.01 15.7 60.2 57 7.2 45
03:50 1018 30.06 847 25.01 15.4 59.7 58 7.3 45.1
03:55 1018 30.06 847 25.01 15.3 59.5 57 7 44.6
04:00 1018 30.06 847 25.01 15.4 59.7 57 7 44.7
04:05 1018 30.06 847 25.01 15.4 59.7 59 7.4 45.4
04:10 1018 30.06 847 25.01 15.2 59.3 63 8.2 46.8
04:15 1018 30.06 847 25.01 14.4 57.9 66 8.1 46.7
04:20 1018 30.06 847 25.01 14.2 57.5 67 8.1 46.6
04:25 1018 30.06 847 25.01 14 57.2 63 7.2 45
04:30 1018 30.06 848 25.04 14.5 58.1 61 7.2 45
04:35 1018 30.06 848 25.04 14.9 58.9 60 7.3 45.2
04:40 1018 30.06 848 25.04 14.8 58.7 61 7.4 45.4
04:45 1018 30.06 848 25.04 14.5 58.1 61 7 44.6
04:50 1018 30.06 848 25.04 14.7 58.5 59 7 44.5
04:55 1018 30.06 848 25.04 14.9 58.8 58 6.8 44.2
05:00 1018 30.06 848 25.04 14.9 58.9 58 6.7 44.1
05:05 1019 30.09 848 25.04 15 58.9 57 6.6 44
05:10 1019 30.09 848 25.04 15 59 58 6.8 44.3
05:15 1019 30.09 848 25.04 15 58.9 58 6.8 44.2
05:20 1019 30.09 848 25.04 14.8 58.7 59 7 44.5
05:25 1019 30.09 848 25.04 14.7 58.4 60 7 44.5
05:30 1019 30.09 848 25.04 14.7 58.5 59 6.7 44.1
05:35 1019 30.09 848 25.04 15 58.9 58 6.9 44.4
05:40 1019 30.09 848 25.04 15 59.1 58 6.9 44.4
05:45 1019 30.09 848 25.04 15.2 59.4 57 6.9 44.4
05:50 1019 30.09 848 25.04 15.7 60.2 56 6.9 44.4
05:55 1019 30.09 848 25.04 16.2 61.1 55 7.2 45
06:00 1019 30.09 848 25.04 16.6 61.9 54 7.4 45.4
06:05 1019 30.09 848 25.04 16.7 62 53 7.2 45
06:10 1019 30.09 848 25.04 16.6 61.9 54 7.5 45.4
06:15 1019 30.09 848 25.04 16.8 62.2 53 7.1 44.8
06:20 1019 30.09 848 25.04 16.6 62 53 7.1 44.8
06:25 1019 30.09 848 25.04 16.9 62.5 52 7.2 44.9
06:30 1019 30.09 848 25.04 17 62.6 54 7.6 45.8
06:35 1019 30.09 848 25.04 16.7 62.1 53 7.1 44.7
06:40 1019 30.09 848 25.04 16.6 61.9 54 7.4 45.4
06:45 1019 30.09 848 25.04 16.6 61.9 54 7.5 45.4
06:50 1019 30.09 848 25.04 16.7 62.1 54 7.4 45.3
06:55 1019 30.09 849 25.07 16.7 62.1 54 7.4 45.3
07:00 1019 30.09 849 25.07 16.7 62 54 7.4 45.3
07:05 1019 30.09 849 25.07 16.6 61.9 54 7.4 45.3
07:10 1019 30.09 849 25.07 16.6 62 54 7.5 45.5
07:15 1019 30.09 849 25.07 16.7 62 54 7.4 45.3
07:20 1020 30.12 849 25.07 16.7 62 56 7.8 46.1
07:25 1020 30.12 849 25.07 16.8 62.2 54 7.6 45.6
07:30 1020 30.12 849 25.07 16.9 62.4 54 7.6 45.7
07:35 1020 30.12 849 25.07 16.9 62.5 54 7.7 45.9
07:40 1020 30.12 849 25.07 17 62.6 54 7.7 45.8
07:45 1020 30.12 849 25.07 17.3 63.1 52 7.4 45.3
07:50 1020 30.12 849 25.07 17.5 63.4 52 7.5 45.6
07:55 1020 30.12 849 25.07 17.6 63.6 51 7.3 45.1
08:00 1020 30.12 849 25.07 17.7 63.8 50 7.3 45.2
08:05 1020 30.12 849 25.07 17.9 64.1 51 7.6 45.8
08:10 1020 30.12 849 25.07 18.1 64.6 51 8 46.4
08:15 1020 30.12 849 25.07 18.3 64.9 51 8.2 46.7
08:20 1020 30.12 849 25.07 18.3 64.9 50 7.8 46
08:25 1020 30.12 849 25.07 18.3 65 49 7.5 45.6
08:30 1020 30.12 849 25.07 18.5 65.4 49 7.9 46.2
08:35 1020 30.12 849 25.07 18.7 65.6 52 8.6 47.6
08:40 1020 30.12 849 25.07 18.7 65.6 51 8.6 47.4
08:45 1020 30.12 849 25.07 18.6 65.5 51 8.5 47.3
08:50 1020 30.12 849 25.07 18.7 65.6 48 7.7 45.9
08:55 1020 30.12 849 25.07 18.9 66.1 44 6.6 43.8
09:00 1020 30.12 849 25.07 19.2 66.5 42 6.2 43.1
09:05 1020 30.12 849 25.07 19.3 66.7 42 6.3 43.3
09:10 1020 30.12 849 25.07 19.4 66.9 42 6.5 43.6
09:15 1020 30.12 849 25.07 19.5 67.1 41 5.9 42.7
09:20 1020 30.12 849 25.07 19.6 67.3 41 6.3 43.3
09:25 1020 30.12 849 25.07 19.7 67.4 40 5.8 42.4
09:30 1020 30.12 849 25.07 19.8 67.6 39 5.7 42.3
09:35 1020 30.12 849 25.07 19.9 67.8 40 6 42.8
09:40 1020 30.12 849 25.07 20.1 68.1 42 6.8 44.2
09:45 1020 30.12 849 25.07 19.8 67.7 48 8.6 47.4
09:50 1020 30.12 849 25.07 19.6 67.3 43 6.7 44.1
09:55 1020 30.12 849 25.07 19.8 67.7 43 7.2 44.9
10:00 1020 30.12 849 25.07 19.8 67.6 47 8.3 47
10:05 1020 30.12 849 25.07 19.5 67.1 48 8.4 47.1
10:10 1020 30.12 849 25.07 19.5 67.1 48 8.2 46.8
10:15 1020 30.12 849 25.07 19.7 67.4 46 7.9 46.2
10:20 1020 30.12 849 25.07 19.7 67.5 47 8.3 46.9
10:25 1020 30.12 849 25.07 19.5 67.2 48 8.3 47
10:30 1020 30.12 849 25.07 19.6 67.2 50 9 48.2
10:35 1020 30.12 849 25.07 18.9 65.9 53 9.1 48.4
10:40 1020 30.12 849 25.07 18.8 65.8 52 8.7 47.7
10:45 1020 30.12 849 25.07 19 66.2 51 8.7 47.6
10:50 1020 30.12 849 25.07 19.1 66.5 50 8.7 47.6
10:55 1020 30.12 849 25.07 19.5 67.1 48 8.5 47.2
11:00 1020 30.12 849 25.07 19.9 67.8 46 8.2 46.8
11:05 1020 30.12 849 25.07 20.4 68.6 44 7.9 46.2
11:10 1020 30.12 849 25.07 21.3 70.3 41 7.8 46
11:15 1020 30.12 849 25.07 21.7 71.1 38 7.1 44.9
11:20 1020 30.12 849 25.07 22.3 72.1 40 8.2 46.7
11:25 1020 30.12 849 25.07 22.7 72.8 36 6.9 44.4
11:30 1020 30.12 849 25.07 22.8 73 35 6.9 44.3
11:35 1020 30.12 849 25.07 23 73.4 36 7.2 44.9
11:40 1020 30.12 849 25.07 23.2 73.7 35 7.1 44.7
11:45 1020 30.12 849 25.07 23.1 73.7 36 7.4 45.2
11:50 1020 30.12 849 25.07 22.8 73 36 7.1 44.8
11:55 1020 30.12 849 25.07 23.1 73.6 33 6.3 43.4
12:00 1020 30.12 849 25.07 23.8 74.9 34 7.1 44.8
12:05 1020 30.12 849 25.07 23.7 74.7 32 6.5 43.6
12:10 1020 30.12 849 25.07 24 75.3 30 5.8 42.4
12:15 1020 30.12 849 25.07 24.2 75.6 29 5.4 41.8
12:20 1020 30.12 849 25.07 24.4 75.9 29 5.3 41.5
12:25 1020 30.12 849 25.07 24.3 75.7 29 5.2 41.3
12:30 1020 30.12 849 25.07 24.5 76.1 28 5 41
12:35 1020 30.12 849 25.07 24.7 76.4 28 5 41
12:40 1020 30.12 849 25.07 24.7 76.4 29 5.7 42.2
12:45 1020 30.12 849 25.07 24.4 75.9 29 5.4 41.7
12:50 1020 30.12 849 25.07 25 76.9 29 5.9 42.6
12:55 1020 30.12 849 25.07 24.6 76.2 28 5 41.1
13:00 1020 30.12 849 25.07 24.4 75.9 29 5.4 41.6
13:05 1020 30.12 849 25.07 24.5 76.1 29 5.4 41.7
13:10 1019 30.09 849 25.07 24.7 76.5 28 5.3 41.6
13:15 1019 30.09 849 25.07 24.9 76.8 28 5.6 42
13:20 1019 30.09 849 25.07 25.1 77.1 28 5.8 42.4
13:25 1019 30.09 849 25.07 24.7 76.5 29 5.9 42.7
13:30 1019 30.09 849 25.07 24.3 75.8 30 6 42.8
13:35 1019 30.09 849 25.07 24.3 75.7 32 6.7 44.1
13:40 1019 30.09 849 25.07 23.3 74 40 9.1 48.4
13:45 1019 30.09 849 25.07 22.2 71.9 40 8.1 46.5
13:50 1019 30.09 849 25.07 22.2 72 39 7.7 45.8
13:55 1019 30.09 849 25.07 23 73.4 33 6.3 43.3
14:00 1019 30.09 849 25.07 23.6 74.5 33 6.7 44
14:05 1019 30.09 848 25.04 24.2 75.6 30 6 42.8
14:10 1019 30.09 848 25.04 24.6 76.4 30 6.4 43.4
14:15 1019 30.09 848 25.04 24.6 76.4 30 6.2 43.1
14:20 1019 30.09 848 25.04 24.8 76.6 30 6.1 43
14:25 1019 30.09 848 25.04 24.3 75.7 31 6.2 43.1
14:30 1019 30.09 849 25.07 23.8 74.8 33 6.7 44
14:35 1019 30.09 849 25.07 22.7 72.8 43 9.8 49.6
14:40 1019 30.09 849 25.07 21.4 70.4 47 9.8 49.7
14:45 1019 30.09 849 25.07 20.3 68.6 49 9.5 49
14:50 1019 30.09 848 25.04 20.6 69.1 46 8.8 47.8
14:55 1019 30.09 848 25.04 21.2 70.1 46 9.1 48.4
15:00 1019 30.09 848 25.04 21.6 70.9 42 8.2 46.8
15:05 1019 30.09 848 25.04 22.2 71.9 38 7.5 45.6
15:10 1019 30.09 848 25.04 23.1 73.5 35 7 44.6
15:15 1019 30.09 848 25.04 23.7 74.7 30 5.6 42
15:20 1019 30.09 848 25.04 24.5 76.1 29 5.5 41.8
15:25 1019 30.09 848 25.04 25.2 77.4 28 5.6 42.2
15:30 1019 30.09 848 25.04 26 78.7 26 5.3 41.6
15:35 1019 30.09 848 25.04 26.2 79.1 26 5.6 42
15:40 1019 30.09 848 25.04 26.2 79.1 26 5.2 41.4
15:45 1019 30.09 848 25.04 26.6 79.8 25 5 41
15:50 1019 30.09 848 25.04 25.9 78.5 27 5.8 42.5
15:55 1019 30.09 848 25.04 25 77.1 28 5.6 42
16:00 1019 30.09 848 25.04 24.9 76.9 27 5.1 41.1
16:05 1019 30.09 848 25.04 24.8 76.6 27 4.7 40.5
16:10 1019 30.09 848 25.04 24.7 76.4 27 4.8 40.6
16:15 1019 30.09 848 25.04 25.2 77.3 27 5.2 41.4
16:20 1019 30.09 848 25.04 25.3 77.5 26 4.8 40.7
16:25 1019 30.09 848 25.04 25.6 78.2 26 5.1 41.1
16:30 1019 30.09 848 25.04 26.1 79 25 4.9 40.8
16:35 1019 30.09 848 25.04 26.1 78.9 27 5.7 42.2
16:40 1019 30.09 848 25.04 26.1 79 28 6.3 43.4
16:45 1019 30.09 848 25.04 26 78.9 28 6.2 43.1
16:50 1019 30.09 848 25.04 26.1 79.1 27 5.8 42.4
16:55 1019 30.09 848 25.04 26.4 79.5 26 5.6 42.1
17:00 1019 30.09 848 25.04 26.2 79.2 26 5.7 42.2
17:05 1019 30.09 848 25.04 26 78.8 26 5.5 41.9
17:10 1019 30.09 848 25.04 26.3 79.4 26 5.8 42.4
17:15 1019 30.09 848 25.04 26.1 79 25 5 40.9
17:20 1019 30.09 848 25.04 26.1 79 26 5.3 41.5
17:25 1019 30.09 848 25.04 26.2 79.1 26 5.5 41.9
17:30 1019 30.09 848 25.04 26.2 79.1 26 5.2 41.3
17:35 1019 30.09 848 25.04 25.7 78.2 26 4.8 40.6
17:40 1019 30.09 848 25.04 25.8 78.4 27 5.4 41.7
17:45 1018 30.06 848 25.04 25.8 78.4 26 5 41.1
17:50 1018 30.06 848 25.04 25.5 77.9 26 5 41
17:55 1018 30.06 848 25.04 25.8 78.4 26 4.9 40.8
18:00 1018 30.06 848 25.04 26 78.8 26 5.1 41.3
18:05 1018 30.06 848 25.04 26 78.7 26 5.1 41.2
18:10 1018 30.06 848 25.04 25.9 78.6 26 5.1 41.1
18:15 1018 30.06 848 25.04 26.1 79 26 5.2 41.4
18:20 1018 30.06 848 25.04 26.1 78.9 26 5.3 41.5
18:25 1018 30.06 848 25.04 25.9 78.7 27 5.7 42.3
18:30 1018 30.06 848 25.04 25.3 77.5 26 4.8 40.6
18:35 1018 30.06 848 25.04 25 77.1 26 4.5 40.1
18:40 1018 30.06 848 25.04 24.9 76.9 26 4.3 39.8
18:45 1018 30.06 848 25.04 25 77 25 4 39.2
18:50 1018 30.06 848 25.04 24.9 76.8 25 3.8 38.8
18:55 1018 30.06 848 25.04 24.8 76.6 26 4.1 39.4
19:00 1018 30.06 848 25.04 24.6 76.2 27 4.4 39.9
19:05 1018 30.06 848 25.04 24.6 76.2 27 4.4 40
19:10 1018 30.06 848 25.04 24.6 76.3 27 4.7 40.5
19:15 1018 30.06 848 25.04 24.4 75.9 27 4.5 40.1
19:20 1018 30.06 848 25.04 24.2 75.5 29 5.4 41.6
19:25 1018 30.06 848 25.04 23.9 75.1 30 5.4 41.7
19:30 1018 30.06 848 25.04 23.8 74.8 31 5.7 42.3
19:35 1018 30.06 848 25.04 23.6 74.4 31 5.7 42.3
19:40 1018 30.06 848 25.04 23.4 74.1 32 5.8 42.5
19:45 1019 30.09 848 25.04 23.2 73.8 32 5.9 42.5
19:50 1019 30.09 848 25.04 23.1 73.5 33 6 42.8
19:55 1019 30.09 848 25.04 22.9 73.2 33 6.2 43.1
20:00 1019 30.09 848 25.04 22.8 73.1 34 6.6 43.8
20:05 1019 30.09 848 25.04 22.5 72.5 36 6.9 44.4
20:10 1019 30.09 848 25.04 22.2 71.9 37 7.1 44.7
20:15 1019 30.09 848 25.04 22 71.7 40 8 46.4
20:20 1019 30.09 848 25.04 21.7 71 45 9.3 48.7
20:25 1019 30.09 848 25.04 20.9 69.5 46 8.8 47.9
20:30 1019 30.09 848 25.04 20.4 68.7 46 8.6 47.4
20:35 1019 30.09 848 25.04 20 68 47 8.6 47.4
20:40 1019 30.09 848 25.04 19.6 67.4 49 8.9 48
20:45 1019 30.09 848 25.04 19.3 66.8 48 8.3 46.9
20:50 1019 30.09 848 25.04 19.2 66.5 51 9 48.1
20:55 1019 30.09 848 25.04 19.1 66.4 50 8.7 47.6
21:00 1019 30.09 848 25.04 19.1 66.4 50 8.5 47.2
21:05 1019 30.09 848 25.04 18.9 66 51 8.6 47.4
21:10 1019 30.09 848 25.04 18.3 64.9 51 8 46.4
21:15 1019 30.09 848 25.04 18.2 64.7 52 8.3 46.9
21:20 1019 30.09 848 25.04 18.1 64.6 52 8.3 46.9
21:25 1019 30.09 848 25.04 17.8 64 51 7.7 45.9
21:30 1019 30.09 848 25.04 17.8 64.1 50 7.5 45.5
21:35 1019 30.09 848 25.04 17.7 63.8 51 7.5 45.5
21:40 1019 30.09 848 25.04 17.6 63.8 51 7.4 45.3
21:45 1019 30.09 848 25.04 17.8 64 49 7.1 44.7
21:50 1019 30.09 848 25.04 18 64.4 50 7.6 45.7
21:55 1019 30.09 848 25.04 18.1 64.6 48 7 44.6
22:00 1019 30.09 848 25.04 17.9 64.3 49 7.2 45
22:05 1019 30.09 849 25.07 17.9 64.2 50 7.4 45.3
22:10 1019 30.09 849 25.07 17.9 64.3 50 7.4 45.4
22:15 1019 30.09 849 25.07 17.9 64.2 51 7.6 45.7
22:20 1020 30.12 849 25.07 17.9 64.2 50 7.3 45.2
22:25 1020 30.12 849 25.07 18 64.4 47 6.7 44
22:30 1020 30.12 849 25.07 18.1 64.5 47 6.8 44.3
22:35 1019 30.09 849 25.07 18.2 64.7 48 7 44.6
22:40 1019 30.09 849 25.07 17.9 64.3 47 6.7 44
22:45 1019 30.09 849 25.07 17.8 64 48 6.8 44.3
22:50 1020 30.12 849 25.07 17.7 63.8 48 6.7 44.1
22:55 1019 30.09 849 25.07 17.7 63.8 49 6.8 44.2
23:00 1020 30.12 849 25.07 17.6 63.6 51 7.6 45.6
23:05 1020 30.12 849 25.07 17.7 63.8 48 6.7 44
23:10 1020 30.12 849 25.07 17.8 64.1 50 7.4 45.4
23:15 1020 30.12 849 25.07 17.7 63.8 50 7.4 45.3
23:20 1020 30.12 849 25.07 17.6 63.6 52 7.7 45.8
23:25 1020 30.12 849 25.07 17.3 63.1 54 8 46.3
23:30 1019 30.09 849 25.07 17.1 62.8 54 7.9 46.3
23:35 1019 30.09 849 25.07 17.1 62.8 58 8.8 47.8
23:40 1019 30.09 849 25.07 17.1 62.8 55 8 46.4
23:45 1019 30.09 849 25.07 16.8 62.3 57 8.3 46.9
23:50 1019 30.09 849 25.07 16.5 61.7 57 8.1 46.5
23:55 1020 30.12 849 25.07 16.4 61.5 57 7.9 46.3
24:00 1020 30.12 849 25.07 16.4 61.6 57 8 46.4